Terminal Aerodrome Forecast
Issued by NWS Twin Cities, MN

Home | Current Version | Previous Version | Graphics & Text | Print | Product List | Glossary On
Versions: 1 2 3 4 5 6 7 8 9 10 11 12 13 14 15 16
000
FTUS43 KMPX 201100
TAFSTC
TAF
KSTC 201120Z 2012/2112 17008KT 2SM BR OVC004
     FM201600 17009KT 4SM BR OVC006
     FM202000 17007KT 6SM HZ OVC010
     FM210300 16007KT 4SM BR OVC007=

USA.gov is the U.S. government's official web portal to all federal, state and local government web resources and services.